Time;durP1;ratioP1;P1;durP2;ratioP2;P2;SDS_P1;SDS_P2;PMS_P1;PMS_P2;Temp;Humidity;BMP_temperature;BMP_pressure;BME280_temperature;BME280_humidity;BME280_pressure;Samples;Min_cycle;Max_cycle;Signal;HPM_P1;HPM_P2
2022/12/01 00:01:56;;;;;;;46.20;20.95;;;;;;;2.08;100.00;100018.84;2251407;79;21367;-59
2022/12/01 00:04:58;;;;;;;57.03;20.30;;;;;;;2.13;100.00;100009.33;2256267;79;21029;-59
2022/12/01 00:07:59;;;;;;;46.43;18.20;;;;;;;2.19;100.00;100009.72;2256402;79;21055;-58
2022/12/01 00:11:01;;;;;;;42.40;16.73;;;;;;;2.18;100.00;100011.88;2256365;79;21025;-58
2022/12/01 00:14:02;;;;;;;42.98;17.50;;;;;;;2.23;100.00;100017.45;2256147;79;21024;-58
2022/12/01 00:17:04;;;;;;;37.88;15.53;;;;;;;2.13;100.00;100015.80;2256254;79;21579;-58
2022/12/01 00:20:05;;;;;;;37.95;15.83;;;;;;;2.18;100.00;100011.88;2256264;79;20945;-58
2022/12/01 00:23:07;;;;;;;37.33;15.53;;;;;;;2.19;100.00;100014.90;2256342;79;21559;-58
2022/12/01 00:26:08;;;;;;;41.30;17.53;;;;;;;2.08;100.00;100014.97;2256285;79;21123;-58
2022/12/01 00:29:10;;;;;;;36.83;15.58;;;;;;;2.11;100.00;100007.62;2256040;79;22002;-58
2022/12/01 00:32:11;;;;;;;57.95;26.02;;;;;;;2.24;100.00;100017.88;2255886;79;21035;-58
2022/12/01 00:35:13;;;;;;;40.63;17.37;;;;;;;2.15;100.00;100014.05;2256722;79;20980;-58
2022/12/01 00:38:14;;;;;;;46.88;17.87;;;;;;;2.12;100.00;100008.90;2256220;79;21020;-59
2022/12/01 00:41:16;;;;;;;39.13;15.85;;;;;;;2.13;100.00;100016.25;2256089;79;21016;-58
2022/12/01 00:44:17;;;;;;;39.27;16.07;;;;;;;2.17;100.00;100010.16;2256527;79;21091;-58
2022/12/01 00:47:19;;;;;;;35.07;13.83;;;;;;;2.13;100.00;100014.95;2256429;79;21041;-58
2022/12/01 00:50:20;;;;;;;34.85;14.95;;;;;;;2.18;100.00;100014.47;2256457;79;21605;-59
2022/12/01 00:53:22;;;;;;;35.73;14.33;;;;;;;2.22;100.00;100010.54;2256230;79;20997;-59
2022/12/01 00:56:24;;;;;;;34.58;14.13;;;;;;;2.21;100.00;100011.44;2255947;79;21518;-58
2022/12/01 00:59:25;;;;;;;33.98;14.07;;;;;;;2.22;100.00;100005.81;2256075;79;20980;-58
2022/12/01 01:02:27;;;;;;;34.38;14.30;;;;;;;2.20;100.00;100007.12;2252805;79;21064;-58
2022/12/01 01:05:28;;;;;;;34.25;13.50;;;;;;;2.26;100.00;100003.63;2249370;79;21020;-58
2022/12/01 01:08:30;;;;;;;34.75;14.35;;;;;;;2.27;100.00;99998.88;2249084;79;21020;-58
2022/12/01 01:11:31;;;;;;;34.00;13.53;;;;;;;2.28;100.00;99999.28;2249423;79;21495;-58
2022/12/01 01:14:32;;;;;;;34.43;13.83;;;;;;;2.23;100.00;99996.73;2249423;79;20957;-58
2022/12/01 01:17:34;;;;;;;33.40;14.07;;;;;;;2.40;100.00;99997.05;2249271;79;21064;-58
2022/12/01 01:20:36;;;;;;;34.50;14.43;;;;;;;2.43;100.00;99990.53;2249663;79;21051;-59
2022/12/01 01:23:37;;;;;;;31.62;13.25;;;;;;;2.31;100.00;99986.30;2249872;79;21527;-58
2022/12/01 01:26:39;;;;;;;35.58;14.75;;;;;;;2.23;100.00;99993.30;2249396;79;21151;-58
2022/12/01 01:29:41;;;;;;;38.90;15.45;;;;;;;2.16;100.00;99994.22;2249396;79;21044;-58
2022/12/01 01:32:42;;;;;;;40.92;16.48;;;;;;;2.15;100.00;99992.05;2249435;79;21076;-58
2022/12/01 01:35:44;;;;;;;39.83;15.70;;;;;;;2.14;100.00;99989.47;2249496;79;21128;-58
2022/12/01 01:38:46;;;;;;;34.03;14.38;;;;;;;2.15;100.00;99985.58;2249548;79;21029;-58
2022/12/01 01:41:47;;;;;;;37.53;14.83;;;;;;;2.25;100.00;99984.62;2249391;79;21049;-58
2022/12/01 01:44:49;;;;;;;36.05;15.30;;;;;;;2.30;100.00;99983.73;2249673;79;21032;-58
2022/12/01 01:47:51;;;;;;;34.33;14.30;;;;;;;2.36;100.00;99987.13;2249320;79;21112;-58
2022/12/01 01:50:52;;;;;;;33.35;13.40;;;;;;;2.14;100.00;99991.64;2249409;79;21032;-58
2022/12/01 01:53:54;;;;;;;33.57;13.73;;;;;;;2.16;100.00;99987.30;2249038;79;21005;-58
2022/12/01 01:56:56;;;;;;;31.62;12.95;;;;;;;2.16;100.00;99987.30;2249448;79;21868;-58
2022/12/01 01:59:57;;;;;;;34.35;13.18;;;;;;;2.18;100.00;99987.28;2249270;79;21025;-59
2022/12/01 02:02:59;;;;;;;35.10;13.43;;;;;;;2.28;100.00;99981.59;2253125;79;21562;-58
2022/12/01 02:06:00;;;;;;;38.70;15.45;;;;;;;2.26;100.00;99984.20;2256333;79;21001;-58
2022/12/01 02:09:01;;;;;;;32.93;13.53;;;;;;;2.20;100.00;99987.70;2256163;79;21041;-59
2022/12/01 02:12:03;;;;;;;33.53;13.48;;;;;;;2.16;100.00;99979.53;2255918;79;21045;-58
2022/12/01 02:15:04;;;;;;;34.23;13.62;;;;;;;2.10;100.00;99986.06;2256283;79;21092;-58
2022/12/01 02:18:06;;;;;;;35.78;14.33;;;;;;;2.15;100.00;99986.02;2256463;79;21614;-58
2022/12/01 02:21:07;;;;;;;33.30;13.22;;;;;;;2.32;100.00;99990.61;2256295;79;21040;-58
2022/12/01 02:24:09;;;;;;;33.70;13.75;;;;;;;2.33;100.00;99983.28;2256684;79;21559;-58
2022/12/01 02:27:11;;;;;;;31.25;13.18;;;;;;;2.39;100.00;99988.39;2256293;79;21025;-58
2022/12/01 02:30:12;;;;;;;32.70;14.07;;;;;;;2.43;100.00;99986.66;2256578;79;21520;-58
2022/12/01 02:33:14;;;;;;;35.07;13.83;;;;;;;2.43;100.00;99977.59;2256467;79;21029;-58
2022/12/01 02:36:15;;;;;;;36.05;14.07;;;;;;;2.32;100.00;99976.82;2256173;79;22223;-58
2022/12/01 02:39:17;;;;;;;33.58;13.70;;;;;;;2.25;100.00;99977.30;2256414;79;21084;-58
2022/12/01 02:42:48;;;;;;;35.45;14.53;;;;;;;2.21;100.00;99974.31;2256261;79;21610;-58
2022/12/01 02:45:22;;;;;;;34.18;14.28;;;;;;;2.22;100.00;99973.00;2230016;79;21439;-58
2022/12/01 02:48:23;;;;;;;34.48;13.28;;;;;;;2.23;100.00;99971.29;2256287;79;21044;-58
2022/12/01 02:51:25;;;;;;;33.08;14.18;;;;;;;2.26;100.00;99976.44;2256274;79;21582;-58
2022/12/01 02:54:26;;;;;;;34.92;14.73;;;;;;;2.24;100.00;99970.39;2256464;79;21060;-58
2022/12/01 02:57:27;;;;;;;34.10;14.98;;;;;;;2.33;100.00;99972.92;2256261;79;21112;-58
2022/12/01 03:00:29;;;;;;;37.08;14.65;;;;;;;2.36;100.00;99978.06;2256411;79;21029;-58
2022/12/01 03:03:30;;;;;;;39.30;14.80;;;;;;;2.51;100.00;99967.98;2256004;79;21073;-58
2022/12/01 03:06:35;;;;;;;33.95;13.78;;;;;;;2.52;100.00;99972.75;2256629;79;21033;-58
2022/12/01 03:09:36;;;;;;;35.68;14.25;;;;;;;2.60;100.00;99965.33;2229168;79;21080;-59
2022/12/01 03:12:38;;;;;;;32.38;13.70;;;;;;;2.67;100.00;99967.42;2256292;79;21570;-58
2022/12/01 03:15:39;;;;;;;33.38;13.90;;;;;;;2.70;100.00;99968.69;2256262;79;21040;-58
2022/12/01 03:18:41;;;;;;;31.95;13.60;;;;;;;2.65;100.00;99968.31;2256151;79;21048;-58
2022/12/01 03:21:42;;;;;;;33.60;14.10;;;;;;;2.48;100.00;99969.32;2256209;79;21084;-58
2022/12/01 03:24:44;;;;;;;33.28;13.08;;;;;;;2.41;100.00;99967.66;2256160;79;21104;-58
2022/12/01 03:27:46;;;;;;;35.17;13.25;;;;;;;2.31;100.00;99959.11;2256277;79;21029;-58
2022/12/01 03:30:48;;;;;;;33.63;13.70;;;;;;;2.34;100.00;99962.12;2256344;79;21072;-58
2022/12/01 03:33:49;;;;;;;36.65;14.40;;;;;;;2.41;100.00;99962.06;2256386;79;21016;-58
2022/12/01 03:36:51;;;;;;;34.83;14.40;;;;;;;2.42;100.00;99966.80;2255975;79;21060;-58
2022/12/01 03:39:53;;;;;;;34.43;13.03;;;;;;;2.38;100.00;99962.06;2256254;79;21048;-58
2022/12/01 03:42:55;;;;;;;33.13;13.70;;;;;;;2.33;100.00;99961.27;2256123;79;21028;-58
2022/12/01 03:45:56;;;;;;;32.70;13.53;;;;;;;2.28;100.00;99959.14;2256291;79;21063;-58
2022/12/01 03:48:58;;;;;;;33.78;13.85;;;;;;;2.22;100.00;99963.09;2256118;79;21036;-58
2022/12/01 03:51:59;;;;;;;39.00;14.60;;;;;;;2.23;100.00;99964.82;2256223;79;21059;-58
2022/12/01 03:55:01;;;;;;;33.28;13.68;;;;;;;2.18;100.00;99963.54;2256168;79;21573;-58
2022/12/01 03:58:03;;;;;;;31.02;13.05;;;;;;;2.23;100.00;99964.38;2256176;79;21044;-59
2022/12/01 04:01:04;;;;;;;38.92;14.50;;;;;;;2.28;100.00;99968.20;2256120;79;21036;-58
2022/12/01 04:04:06;;;;;;;32.67;13.88;;;;;;;2.28;100.00;99967.36;2255959;79;21404;-58
2022/12/01 04:07:12;;;;;;;34.45;13.68;;;;;;;2.27;100.00;99964.34;2256083;79;21048;-58
2022/12/01 04:10:10;;;;;;;32.08;14.05;;;;;;;2.38;100.00;99963.81;2229573;79;21012;-58
2022/12/01 04:13:21;;;;;;;34.92;13.75;;;;;;;2.46;100.00;99952.07;2256355;79;21044;-59
2022/12/01 04:16:15;;;;;;;35.90;14.30;;;;;;;2.43;100.00;99955.58;2229348;79;20985;-58
2022/12/01 04:19:16;;;;;;;38.92;15.13;;;;;;;2.45;100.00;99952.52;2255954;79;21091;-58
2022/12/01 04:22:18;;;;;;;34.10;13.58;;;;;;;2.50;100.00;99955.05;2256352;79;21049;-59
2022/12/01 04:25:19;;;;;;;34.85;14.33;;;;;;;2.56;100.00;99949.39;2256147;79;21017;-59
2022/12/01 04:28:21;;;;;;;32.90;13.10;;;;;;;2.52;100.00;99945.56;2256267;79;21517;-58
2022/12/01 04:31:22;;;;;;;33.50;13.78;;;;;;;2.47;100.00;99948.62;2255831;79;21016;-58
2022/12/01 04:34:24;;;;;;;36.45;14.65;;;;;;;2.33;100.00;99946.15;2256501;79;21053;-58
2022/12/01 04:37:25;;;;;;;34.90;13.10;;;;;;;2.23;100.00;99946.70;2256165;79;21040;-58
2022/12/01 04:40:26;;;;;;;32.00;13.32;;;;;;;2.14;100.00;99950.64;2256108;79;21011;-59
2022/12/01 04:43:28;;;;;;;33.63;13.90;;;;;;;2.05;100.00;99948.99;2256375;79;21044;-58
2022/12/01 04:46:29;;;;;;;32.08;12.45;;;;;;;2.04;100.00;99940.80;2256183;79;21020;-58
2022/12/01 04:49:31;;;;;;;35.77;13.67;;;;;;;2.10;100.00;99946.36;2256710;79;21053;-58
2022/12/01 04:52:32;;;;;;;39.83;17.87;;;;;;;2.13;100.00;99948.95;2256685;79;21757;-58
2022/12/01 04:55:35;;;;;;;37.35;14.63;;;;;;;2.02;100.00;99952.46;2256642;79;21535;-58
2022/12/01 04:58:37;;;;;;;55.60;27.65;;;;;;;2.02;100.00;99942.55;2256033;79;21625;-58
2022/12/01 05:01:39;;;;;;;49.23;22.63;;;;;;;2.05;100.00;99945.98;2256577;79;21059;-58
2022/12/01 05:04:40;;;;;;;52.45;24.30;;;;;;;2.00;100.00;99937.39;2250656;79;21574;-58
2022/12/01 05:07:42;;;;;;;92.20;47.17;;;;;;;2.06;100.00;99947.69;2249293;79;21072;-58
2022/12/01 05:10:44;;;;;;;44.58;20.23;;;;;;;2.16;100.00;99945.03;2249490;79;21073;-58
2022/12/01 05:13:45;;;;;;;34.70;15.20;;;;;;;2.10;100.00;99945.06;2249299;79;21036;-59
2022/12/01 05:16:47;;;;;;;36.03;14.93;;;;;;;2.13;100.00;99945.06;2249289;79;20993;-58
2022/12/01 05:22:52;;;;;;;38.88;15.20;;;;;;;2.12;100.00;99949.36;2220855;79;21456;-58
2022/12/01 05:25:53;;;;;;;32.42;13.05;;;;;;;2.21;100.00;99954.48;2249236;79;21107;-58
2022/12/01 05:28:55;;;;;;;31.45;12.30;;;;;;;2.12;100.00;99949.36;2249546;79;21554;-58
2022/12/01 05:31:56;;;;;;;39.05;16.07;;;;;;;2.18;100.00;99949.30;2249581;79;21044;-59
2022/12/01 05:34:58;;;;;;;39.35;15.75;;;;;;;2.09;100.00;99953.28;2249323;79;21041;-58
2022/12/01 05:37:59;;;;;;;30.60;12.27;;;;;;;2.00;100.00;99946.45;2249515;79;21057;-59
2022/12/01 05:41:01;;;;;;;32.53;12.90;;;;;;;2.05;100.00;99953.75;2249413;79;21073;-58
2022/12/01 05:44:02;;;;;;;32.95;12.53;;;;;;;2.23;100.00;99952.72;2249462;79;21013;-58
2022/12/01 05:47:04;;;;;;;29.57;11.75;;;;;;;2.21;100.00;99956.19;2249129;79;21080;-58
2022/12/01 05:50:05;;;;;;;34.83;13.53;;;;;;;2.35;100.00;99959.95;2249662;79;21077;-58
2022/12/01 05:53:07;;;;;;;32.13;11.90;;;;;;;2.37;100.00;99953.90;2249045;79;21469;-58
2022/12/01 05:56:08;;;;;;;35.53;15.43;;;;;;;2.46;100.00;99955.95;2249620;79;21581;-58
2022/12/01 05:59:10;;;;;;;40.95;16.30;;;;;;;2.46;100.00;99955.95;2249017;79;21404;-58
2022/12/01 06:02:11;;;;;;;33.65;12.43;;;;;;;2.36;100.00;99954.77;2249169;79;21076;-58
2022/12/01 06:05:13;;;;;;;65.93;25.10;;;;;;;2.28;100.00;99960.89;2249196;79;21084;-58
2022/12/01 06:08:14;;;;;;;120.87;50.52;;;;;;;2.31;100.00;99955.23;2249096;79;21048;-58
2022/12/01 06:11:16;;;;;;;47.23;20.50;;;;;;;2.29;100.00;99969.94;2249555;79;21060;-58
2022/12/01 06:14:17;;;;;;;28.57;11.75;;;;;;;2.24;100.00;99972.98;2249112;79;21064;-58
2022/12/01 06:17:19;;;;;;;48.52;20.50;;;;;;;2.25;100.00;99967.80;2249284;79;21080;-58
2022/12/01 06:20:22;;;;;;;32.45;12.53;;;;;;;2.30;100.00;99966.89;2249037;79;21088;-58
2022/12/01 06:23:23;;;;;;;29.07;11.45;;;;;;;2.33;100.00;99975.92;2249063;79;21057;-58
2022/12/01 06:26:25;;;;;;;34.10;14.83;;;;;;;2.33;100.00;99975.52;2249086;79;21555;-58
2022/12/01 06:29:26;;;;;;;29.98;11.08;;;;;;;2.47;100.00;99976.69;2249236;79;21102;-58
2022/12/01 06:32:28;;;;;;;33.25;13.55;;;;;;;2.43;100.00;99978.88;2249163;79;21025;-58
2022/12/01 06:35:29;;;;;;;33.73;13.28;;;;;;;2.39;100.00;99984.52;2249217;79;21016;-58
2022/12/01 06:38:31;;;;;;;31.60;11.97;;;;;;;2.41;100.00;99983.20;2249061;79;21012;-59
2022/12/01 06:41:32;;;;;;;40.78;18.27;;;;;;;2.31;100.00;99985.00;2249344;79;21084;-58
2022/12/01 06:44:34;;;;;;;31.20;13.72;;;;;;;2.32;100.00;99989.32;2249135;79;21033;-58
2022/12/01 06:47:35;;;;;;;43.97;16.30;;;;;;;2.21;100.00;99987.25;2249407;79;21607;-58
2022/12/01 06:50:39;;;;;;;29.95;11.03;;;;;;;2.21;100.00;99983.38;2249326;79;21068;-58
2022/12/01 06:53:40;;;;;;;30.10;10.88;;;;;;;2.19;100.00;99989.86;2249219;79;21037;-58
2022/12/01 06:56:42;;;;;;;30.45;11.33;;;;;;;2.23;100.00;99995.89;2249013;79;21088;-59
2022/12/01 06:59:46;;;;;;;28.63;10.97;;;;;;;2.24;100.00;99992.41;2249633;79;21076;-59
2022/12/01 07:02:48;;;;;;;27.25;9.85;;;;;;;2.24;100.00;99992.41;2220399;79;21620;-59
2022/12/01 07:05:49;;;;;;;28.75;10.23;;;;;;;2.29;100.00;99989.35;2256086;79;21099;-58
2022/12/01 07:08:51;;;;;;;27.98;10.08;;;;;;;2.32;100.00;99990.61;2256106;79;21088;-58
2022/12/01 07:11:52;;;;;;;28.17;10.75;;;;;;;2.42;100.00;99990.11;2256408;79;21016;-58
2022/12/01 07:14:53;;;;;;;27.02;9.93;;;;;;;2.45;100.00;99990.07;2256025;79;21131;-58
2022/12/01 07:17:55;;;;;;;27.73;10.88;;;;;;;2.54;100.00;99995.19;2256273;79;21544;-58
2022/12/01 07:20:56;;;;;;;56.60;16.90;;;;;;;2.65;100.00;100000.25;2256147;79;20997;-59
2022/12/01 07:23:59;;;;;;;193.17;70.27;;;;;;;2.62;100.00;99997.69;2256520;79;21558;-58
2022/12/01 07:27:01;;;;;;;31.65;11.22;;;;;;;2.57;100.00;99994.27;2256230;79;21748;-58
2022/12/01 07:30:03;;;;;;;41.15;14.93;;;;;;;2.68;100.00;99994.18;2256531;79;21033;-58
2022/12/01 07:33:04;;;;;;;27.40;9.75;;;;;;;2.85;100.00;99999.19;2256415;79;21053;-58
2022/12/01 07:36:06;;;;;;;30.85;12.47;;;;;;;2.74;100.00;99994.11;2256443;79;21067;-58
2022/12/01 07:39:08;;;;;;;30.68;11.08;;;;;;;2.70;100.00;99999.77;2256147;79;21076;-59
2022/12/01 07:42:10;;;;;;;30.37;11.28;;;;;;;2.59;100.00;100000.31;2256371;79;21028;-58
2022/12/01 07:45:11;;;;;;;25.50;9.33;;;;;;;2.52;100.00;100012.45;2255886;79;21038;-58
2022/12/01 07:48:13;;;;;;;39.75;15.48;;;;;;;2.51;100.00;100008.58;2256374;79;21532;-59
2022/12/01 07:51:16;;;;;;;26.90;9.85;;;;;;;2.59;100.00;100018.45;2256010;79;21084;-58
2022/12/01 07:54:19;;;;;;;30.93;13.50;;;;;;;2.61;100.00;100012.80;2256500;79;21071;-58
2022/12/01 07:57:22;;;;;;;26.77;9.40;;;;;;;2.64;100.00;100010.63;2229199;79;21668;-59
2022/12/01 08:00:23;;;;;;;24.70;8.78;;;;;;;2.60;100.00;100014.96;2256418;79;20978;-59
2022/12/01 08:03:25;;;;;;;23.83;8.20;;;;;;;2.68;100.00;100010.57;2256027;79;21013;-59
2022/12/01 08:06:26;;;;;;;30.90;9.95;;;;;;;2.77;100.00;100009.62;2256274;79;21590;-58
2022/12/01 08:09:28;;;;;;;23.73;8.20;;;;;;;2.83;100.00;100009.99;2256036;79;21072;-58
2022/12/01 08:12:29;;;;;;;66.80;18.75;;;;;;;2.93;100.00;99999.95;2256358;79;21077;-58
2022/12/01 08:15:31;;;;;;;101.60;31.05;;;;;;;2.88;100.00;100003.89;2256205;79;21037;-59
2022/12/01 08:18:32;;;;;;;99.10;30.93;;;;;;;2.80;100.00;99999.66;2256351;79;21084;-59
2022/12/01 08:21:36;;;;;;;52.60;18.55;;;;;;;2.74;100.00;100009.66;2256438;79;21028;-59
2022/12/01 08:24:37;;;;;;;58.02;20.12;;;;;;;2.67;100.00;100010.17;2229716;79;20996;-59
2022/12/01 08:27:38;;;;;;;68.42;25.10;;;;;;;2.68;100.00;100007.14;2256466;79;21048;-58
2022/12/01 08:30:40;;;;;;;38.75;14.73;;;;;;;2.59;100.00;100019.30;2256698;79;21043;-58
2022/12/01 08:33:41;;;;;;;33.40;12.93;;;;;;;2.63;100.00;100005.89;2256466;79;21064;-58
2022/12/01 08:36:43;;;;;;;30.02;12.23;;;;;;;2.63;100.00;100004.59;2256487;79;21566;-58
2022/12/01 08:39:46;;;;;;;27.67;10.32;;;;;;;2.57;100.00;100020.17;2228493;79;21016;-59
2022/12/01 08:42:47;;;;;;;25.00;9.05;;;;;;;2.61;100.00;100008.91;2256432;79;21088;-59
2022/12/01 08:45:49;;;;;;;31.37;12.30;;;;;;;2.78;100.00;100010.89;2256702;79;21028;-58
2022/12/01 08:48:53;;;;;;;25.70;9.07;;;;;;;2.70;100.00;100012.73;2256517;79;21077;-59
2022/12/01 08:51:55;;;;;;;27.07;9.73;;;;;;;2.79;100.00;100013.07;2229733;79;21051;-58
2022/12/01 08:54:56;;;;;;;33.85;12.78;;;;;;;2.78;100.00;100007.45;2256590;79;21012;-58
2022/12/01 08:57:58;;;;;;;31.42;11.57;;;;;;;2.75;100.00;100008.34;2256508;79;21115;-58
2022/12/01 09:00:59;;;;;;;31.75;13.22;;;;;;;2.69;100.00;100002.38;2256447;79;21056;-58
2022/12/01 09:07:04;;;;;;;25.17;9.48;;;;;;;2.76;100.00;100010.52;2229489;79;21502;-58
2022/12/01 09:10:05;;;;;;;27.67;9.13;;;;;;;2.81;100.00;100006.13;2256313;79;21013;-59
2022/12/01 09:13:07;;;;;;;26.97;11.03;;;;;;;2.81;100.00;100006.13;2256521;79;21482;-59
2022/12/01 09:16:09;;;;;;;29.82;11.08;;;;;;;2.86;100.00;100002.19;2256327;79;21069;-59
2022/12/01 09:19:10;;;;;;;28.60;11.45;;;;;;;2.89;100.00;99997.84;2256267;79;21013;-59
2022/12/01 09:22:12;;;;;;;30.62;10.82;;;;;;;2.86;100.00;99997.88;2256524;79;21484;-59
2022/12/01 09:25:13;;;;;;;27.82;9.93;;;;;;;2.85;100.00;99991.42;2255927;79;21012;-58
2022/12/01 09:28:16;;;;;;;29.77;11.27;;;;;;;2.85;100.00;99992.72;2256757;79;21479;-58
2022/12/01 09:31:19;;;;;;;31.30;13.05;;;;;;;2.93;100.00;99993.47;2256035;79;21778;-58
2022/12/01 09:34:21;;;;;;;28.07;10.70;;;;;;;2.94;100.00;99993.48;2256254;79;21032;-58
2022/12/01 09:37:22;;;;;;;31.63;12.33;;;;;;;2.86;100.00;99979.73;2256654;79;21591;-58
2022/12/01 09:40:24;;;;;;;34.70;12.98;;;;;;;2.88;100.00;99988.34;2256515;79;21020;-58
2022/12/01 09:43:25;;;;;;;34.38;14.10;;;;;;;2.86;100.00;99987.52;2256632;79;21484;-58
2022/12/01 09:46:26;;;;;;;29.35;11.03;;;;;;;2.84;100.00;99987.10;2256369;79;21091;-59
2022/12/01 09:49:28;;;;;;;35.95;13.38;;;;;;;2.87;100.00;99985.77;2256236;79;21068;-58
2022/12/01 09:52:29;;;;;;;32.38;12.98;;;;;;;2.85;100.00;99982.34;2256478;79;21017;-58
2022/12/01 09:55:31;;;;;;;41.00;18.52;;;;;;;2.87;100.00;99980.59;2256248;79;21016;-58
2022/12/01 09:58:32;;;;;;;33.42;12.43;;;;;;;2.97;100.00;99986.53;2256160;79;21064;-58
2022/12/01 10:01:34;;;;;;;29.57;11.63;;;;;;;2.97;100.00;99982.19;2256245;79;21016;-58
2022/12/01 10:04:35;;;;;;;31.48;12.82;;;;;;;2.91;100.00;99977.94;2256170;79;21606;-59
2022/12/01 10:07:37;;;;;;;28.90;12.07;;;;;;;2.85;100.00;99981.05;2256420;79;21087;-58
2022/12/01 10:10:38;;;;;;;30.15;11.75;;;;;;;2.94;100.00;99974.45;2256439;79;21075;-58
2022/12/01 10:13:40;;;;;;;28.50;11.83;;;;;;;2.95;100.00;99982.21;2256286;79;21060;-58
2022/12/01 10:16:41;;;;;;;28.17;11.35;;;;;;;3.08;100.00;99979.05;2256147;79;21092;-58
2022/12/01 10:19:43;;;;;;;25.33;9.50;;;;;;;3.15;100.00;99980.25;2256370;79;21073;-58
2022/12/01 10:22:45;;;;;;;33.13;13.05;;;;;;;3.26;100.00;99975.80;2256229;79;21693;-58
2022/12/01 10:25:46;;;;;;;33.42;12.65;;;;;;;3.24;100.00;99977.56;2256041;79;21499;-58
2022/12/01 10:28:47;;;;;;;26.93;10.53;;;;;;;3.22;100.00;99971.11;2256202;79;21048;-58
2022/12/01 10:31:49;;;;;;;29.07;11.47;;;;;;;3.25;100.00;99974.11;2256791;79;21518;-58
2022/12/01 10:34:50;;;;;;;28.15;11.25;;;;;;;3.24;100.00;99969.78;2256315;79;21029;-59
2022/12/01 10:37:52;;;;;;;25.90;9.05;;;;;;;3.23;100.00;99967.64;2255800;79;20972;-58
2022/12/01 10:40:54;;;;;;;28.35;10.70;;;;;;;3.24;100.00;99967.20;2256307;79;20941;-59
2022/12/01 10:43:56;;;;;;;24.40;8.80;;;;;;;3.08;100.00;99951.82;2256341;79;21079;-58
2022/12/01 10:46:58;;;;;;;25.43;9.18;;;;;;;3.08;100.00;99951.82;2256558;79;21064;-59
2022/12/01 10:49:59;;;;;;;98.03;64.55;;;;;;;3.17;100.00;99954.73;2256173;79;21056;-59
2022/12/01 10:53:00;;;;;;;112.72;77.25;;;;;;;3.25;100.00;99955.95;2256316;79;21123;-59
2022/12/01 10:56:02;;;;;;;47.20;18.05;;;;;;;3.22;100.00;99959.44;2256104;79;21029;-58
2022/12/01 10:59:03;;;;;;;106.63;33.40;;;;;;;3.21;100.00;99955.12;2256590;79;21076;-58
2022/12/01 11:02:05;;;;;;;27.00;9.75;;;;;;;3.27;100.00;99951.59;2256165;79;21000;-58
2022/12/01 11:05:07;;;;;;;33.58;12.43;;;;;;;3.28;100.00;99950.27;2256257;79;21618;-59
2022/12/01 11:08:08;;;;;;;27.13;8.90;;;;;;;3.16;100.00;99948.27;2256236;79;21052;-59
2022/12/01 11:11:10;;;;;;;28.52;10.90;;;;;;;3.09;100.00;99948.81;2256545;79;21091;-59
2022/12/01 11:14:11;;;;;;;23.77;8.30;;;;;;;3.08;100.00;99948.38;2256410;79;21032;-59
2022/12/01 11:17:13;;;;;;;25.73;9.00;;;;;;;3.05;100.00;99944.53;2256025;79;21023;-59
2022/12/01 11:20:14;;;;;;;22.13;8.03;;;;;;;2.93;100.00;99948.11;2256384;79;21613;-58
2022/12/01 11:23:15;;;;;;;21.55;6.53;;;;;;;2.92;100.00;99947.27;2255780;79;21015;-59
2022/12/01 11:26:19;;;;;;;27.37;10.55;;;;;;;3.10;100.00;99947.49;2256277;79;21507;-59
2022/12/01 11:29:20;;;;;;;23.70;8.23;;;;;;;3.06;100.00;99942.34;2229623;79;20964;-59
2022/12/01 11:32:22;;;;;;;22.40;7.37;;;;;;;2.96;100.00;99941.63;2256311;79;20969;-59
2022/12/01 11:35:23;;;;;;;24.10;8.55;;;;;;;3.00;100.00;99940.68;2256381;79;21540;-59
2022/12/01 11:38:24;;;;;;;20.12;5.78;;;;;;;3.05;100.00;99940.20;2256077;79;21044;-59
2022/12/01 11:41:26;;;;;;;20.10;5.55;;;;;;;3.04;100.00;99934.58;2256424;79;21554;-59
2022/12/01 11:44:27;;;;;;;22.70;7.08;;;;;;;3.09;100.00;99927.63;2256242;79;21021;-58
2022/12/01 11:47:29;;;;;;;19.05;5.58;;;;;;;3.12;100.00;99937.95;2256221;79;21029;-58
2022/12/01 11:50:30;;;;;;;20.40;6.50;;;;;;;3.13;100.00;99933.61;2256209;79;21024;-58
2022/12/01 11:53:32;;;;;;;19.87;6.45;;;;;;;3.04;100.00;99929.85;2256164;79;20964;-59
2022/12/01 11:56:33;;;;;;;20.70;6.17;;;;;;;2.94;100.00;99939.05;2256157;79;21079;-58
2022/12/01 11:59:35;;;;;;;19.67;5.70;;;;;;;2.89;100.00;99928.31;2256257;79;21001;-59
2022/12/01 12:02:36;;;;;;;21.97;6.55;;;;;;;2.91;100.00;99933.88;2256295;79;21504;-58
2022/12/01 12:05:38;;;;;;;21.97;5.87;;;;;;;2.78;100.00;99927.13;2255928;79;20999;-58
2022/12/01 12:08:39;;;;;;;21.87;6.62;;;;;;;2.71;100.00;99930.67;2256491;79;21424;-59
2022/12/01 12:11:40;;;;;;;18.12;5.87;;;;;;;2.70;100.00;99924.64;2256237;79;21048;-59
2022/12/01 12:14:42;;;;;;;52.03;21.15;;;;;;;2.72;100.00;99924.17;2256195;79;21459;-58
2022/12/01 12:17:44;;;;;;;36.55;13.78;;;;;;;2.70;100.00;99921.17;2256076;79;21132;-58
2022/12/01 12:20:45;;;;;;;20.60;5.95;;;;;;;2.64;100.00;99922.55;2256098;79;21059;-59
2022/12/01 12:23:46;;;;;;;21.12;7.05;;;;;;;2.64;100.00;99923.84;2256343;79;21143;-58
2022/12/01 12:26:48;;;;;;;20.82;6.25;;;;;;;2.62;100.00;99930.33;2256068;79;21052;-58
2022/12/01 12:29:49;;;;;;;23.18;6.65;;;;;;;2.65;100.00;99932.89;2256347;79;21530;-58
2022/12/01 12:32:51;;;;;;;18.40;5.35;;;;;;;2.74;100.00;99928.91;2256123;79;21005;-59
2022/12/01 12:35:52;;;;;;;19.20;6.13;;;;;;;2.75;100.00;99934.50;2256087;79;21557;-59
2022/12/01 12:38:54;;;;;;;17.93;5.63;;;;;;;2.75;100.00;99934.50;2256476;79;21466;-58
2022/12/01 12:41:56;;;;;;;20.37;6.03;;;;;;;2.92;100.00;99933.45;2256380;79;21063;-59
2022/12/01 12:44:57;;;;;;;20.72;6.67;;;;;;;2.98;100.00;99933.37;2256089;79;21118;-58
2022/12/01 12:47:59;;;;;;;20.25;6.22;;;;;;;2.93;100.00;99924.78;2256106;79;20961;-58
2022/12/01 12:51:00;;;;;;;19.55;6.55;;;;;;;2.86;100.00;99928.33;2256337;79;21052;-59
2022/12/01 12:54:02;;;;;;;20.73;6.23;;;;;;;2.78;100.00;99930.56;2256436;79;21052;-58
2022/12/01 12:57:04;;;;;;;43.25;15.65;;;;;;;2.78;100.00;99932.31;2256307;79;21708;-58
2022/12/01 13:00:05;;;;;;;20.30;6.35;;;;;;;2.83;100.00;99934.84;2256102;79;21067;-59
2022/12/01 13:03:07;;;;;;;22.22;7.12;;;;;;;2.72;100.00;99931.94;2256013;79;21035;-58
2022/12/01 13:06:08;;;;;;;22.13;6.60;;;;;;;2.70;100.00;99929.82;2251969;79;21019;-58
2022/12/01 13:09:10;;;;;;;22.27;7.17;;;;;;;2.57;100.00;99930.39;2249464;79;21439;-58
2022/12/01 13:12:14;;;;;;;24.32;8.10;;;;;;;2.59;100.00;99931.67;2249135;79;21025;-59
2022/12/01 13:15:14;;;;;;;22.25;8.65;;;;;;;2.63;100.00;99935.06;2220746;79;20945;-58
2022/12/01 13:18:16;;;;;;;24.80;7.63;;;;;;;2.63;100.00;99920.82;2249502;79;21575;-58
2022/12/01 13:21:17;;;;;;;23.50;8.48;;;;;;;2.63;100.00;99920.82;2249403;79;20949;-59
2022/12/01 13:24:19;;;;;;;22.83;6.97;;;;;;;2.73;100.00;99932.79;2249432;79;21036;-58
2022/12/01 13:27:21;;;;;;;26.68;9.70;;;;;;;2.76;100.00;99925.01;2249283;79;21709;-58
2022/12/01 13:30:22;;;;;;;28.15;8.75;;;;;;;2.75;100.00;99928.02;2249172;79;21080;-59
2022/12/01 13:33:23;;;;;;;26.60;8.70;;;;;;;2.73;100.00;99932.79;2249290;79;21021;-58
2022/12/01 13:36:25;;;;;;;24.02;7.42;;;;;;;2.84;100.00;99930.09;2249096;79;21550;-58
2022/12/01 13:39:27;;;;;;;23.30;7.20;;;;;;;2.87;100.00;99933.94;2249299;79;21064;-58
2022/12/01 13:42:30;;;;;;;21.67;7.27;;;;;;;3.05;100.00;99934.17;2249754;79;21537;-58
2022/12/01 13:45:32;;;;;;;30.48;11.63;;;;;;;3.07;100.00;99933.70;2249650;79;21476;-58
2022/12/01 13:48:33;;;;;;;25.55;9.78;;;;;;;3.05;100.00;99933.72;2249290;79;21052;-59
2022/12/01 13:51:35;;;;;;;52.98;21.70;;;;;;;3.06;100.00;99930.67;2249292;79;21516;-58
2022/12/01 13:54:36;;;;;;;25.95;9.63;;;;;;;3.07;100.00;99928.52;2249409;79;21381;-59
2022/12/01 13:57:38;;;;;;;21.65;7.78;;;;;;;3.09;100.00;99928.07;2249542;79;21515;-58
2022/12/01 14:00:40;;;;;;;24.55;8.03;;;;;;;3.16;100.00;99927.53;2249375;79;21067;-58